Flight Track Log - Related Links

Times and Time Zones

All times are in EDT time to prevent confusion due to time zone crossing. See the N588AC flight status page for this flight to view local times or setup timezone preferences in your user account.

Time Position Orientation Groundspeed Altitude Reporting Facility
EDT Latitude Longitude Course Direction KTS MPH feet Rate Location/Type
Wed 08:50:27 PM 41.5233 -81.6758 35° Northeast 165 190 1,000  Level Cleveland Center
Wed 08:52:03 PM 41.5969 -81.6078 35° Northeast 228 262 3,100 1,154 Climbing Cleveland Center
Wed 08:53:03 PM 41.5744 -81.5436 115° Southeast 224 258 4,000 1,150 Climbing Cleveland Center
Wed 08:54:03 PM 41.5250 -81.4900 141° Southeast 219 252 5,400 1,200 Climbing Cleveland Center
Wed 08:55:03 PM 41.4542 -81.4558 160° South 234 269 6,400 1,400 Climbing Cleveland Center
Wed 08:56:03 PM 41.3919 -81.4411 170° South 241 277 8,200 1,800 Climbing Cleveland Center
Wed 08:57:03 PM 41.3189 -81.4347 176° South 254 292 10,000 1,800 Climbing Cleveland Center
Wed 08:58:03 PM 41.2808 -81.5086 236° Southwest 226 260 11,800 1,600 Climbing Cleveland Center
Wed 08:59:03 PM 41.2406 -81.5992 239° Southwest 254 292 13,200 1,350 Climbing Cleveland Center
Wed 09:00:03 PM 41.1814 -81.6811 226° Southwest 279 321 14,500 1,700 Climbing Cleveland Center
Wed 09:01:03 PM 41.1181 -81.7489 219° Southwest 296 341 16,600 1,700 Climbing Cleveland Center
Wed 09:02:03 PM 41.0589 -81.8306 226° Southwest 310 357 17,900 1,100 Climbing Cleveland Center
Wed 09:03:03 PM 40.9911 -81.9256 227° Southwest 317 365 18,800 1,100 Climbing Cleveland Center
Wed 09:04:03 PM 40.9294 -82.0150 228° Southwest 329 379 20,100 1,445 Climbing Cleveland Center
Wed 09:06:14 PM 40.7650 -82.1444 211° Southwest 323 372 23,400 1,406 Climbing Indianapolis Center
Wed 09:07:15 PM 40.6842 -82.2019 208° Southwest 326 375 24,600 1,131 Climbing Indianapolis Center
Wed 09:08:16 PM 40.6022 -82.2631 210° Southwest 335 386 25,700 1,131 Climbing Indianapolis Center
Wed 09:09:17 PM 40.5203 -82.3239 209° Southwest 336 387 26,900 1,073 Climbing Indianapolis Center
Wed 09:10:19 PM 40.4222 -82.3261 181° South 364 419 27,900 1,024 Climbing Indianapolis Center
Wed 09:11:20 PM 40.3269 -82.2719 157° South 372 428 29,000 1,180 Climbing Indianapolis Center
Wed 09:12:21 PM 40.2258 -82.2092 155° Southeast 376 433 30,300 1,377 Climbing Indianapolis Center
Wed 09:13:22 PM 40.1317 -82.1497 154° Southeast 372 428 31,800 1,279 Climbing Indianapolis Center
Wed 09:14:23 PM 40.0392 -82.0919 154° Southeast 365 420 32,900 585 Climbing Indianapolis Center
Wed 09:15:25 PM 39.9417 -82.0314 155° Southeast 382 440 33,000 49 Climbing Indianapolis Center
Wed 09:16:26 PM 39.8378 -81.9675 155° Southeast 405 466 33,000  Level Indianapolis Center
Wed 09:17:27 PM 39.7319 -81.9019 155° Southeast 415 478 33,000  Level Indianapolis Center
Wed 09:18:28 PM 39.6331 -81.8408 155° Southeast 421 484 33,000  Level Indianapolis Center
Wed 09:19:29 PM 39.5086 -81.7639 154° Southeast 414 476 33,000  Level Indianapolis Center
Wed 09:20:31 PM 39.4056 -81.7019 155° Southeast 408 470 33,000  Level Indianapolis Center
Wed 09:21:32 PM 39.3025 -81.6392 155° Southeast 408 470 33,000  Level Indianapolis Center
Wed 09:22:33 PM 39.2003 -81.5758 154° Southeast 405 466 33,000  Level Indianapolis Center
Wed 09:23:34 PM 39.0981 -81.5142 155° Southeast 403 464 33,000  Level Indianapolis Center
Wed 09:24:35 PM 38.9953 -81.4531 155° Southeast 403 464 33,000  Level Indianapolis Center
Wed 09:25:37 PM 38.8914 -81.3900 155° Southeast 408 470 33,000  Level Indianapolis Center
Wed 09:26:38 PM 38.7864 -81.3275 155° Southeast 408 470 33,000  Level Indianapolis Center
Wed 09:27:39 PM 38.6808 -81.2647 155° Southeast 409 471 33,000  Level Indianapolis Center
Wed 09:28:40 PM 38.5764 -81.2022 155° Southeast 408 470 33,000 -393 Level Indianapolis Center
Wed 09:29:41 PM 38.4717 -81.1417 156° South 411 473 32,200 -1,073 Descending Indianapolis Center
Wed 09:30:43 PM 38.3761 -81.0850 155° Southeast 382 440 30,800 -1,659 Descending Indianapolis Center
Wed 09:31:44 PM 38.2889 -81.0331 155° Southeast 349 402 28,800 -2,262 Descending Indianapolis Center
Wed 09:32:45 PM 38.1964 -80.9789 155° Southeast 361 415 26,200 -2,311 Descending Indianapolis Center
Wed 09:33:46 PM 38.0989 -80.9219 155° Southeast 382 440 24,100 -2,016 Descending Indianapolis Center
Wed 09:34:47 PM 38.0033 -80.8661 155° Southeast 377 434 22,100 -1,918 Descending Indianapolis Center
Wed 09:35:48 PM 37.9092 -80.8128 156° South 371 427 20,200 -1,902 Descending Indianapolis Center
Wed 09:36:50 PM 37.7994 -80.7536 157° South 365 420 18,200 -1,721 Descending Washington Center
Wed 09:37:50 PM 37.7139 -80.7031 155° Southeast 354 407 16,700 -1,600 Descending Washington Center
Wed 09:38:50 PM 37.6283 -80.6528 155° Southeast 348 400 15,000 -2,350 Descending Washington Center
Wed 09:39:50 PM 37.5525 -80.6217 162° South 325 374 12,000 -3,100 Descending Washington Center
Wed 09:40:50 PM 37.4869 -80.5911 160° South 295 339 8,800 -2,550 Descending Washington Center
Wed 09:41:50 PM 37.4214 -80.5658 163° South 266 306 6,900 -1,700 Descending Washington Center
Wed 09:42:50 PM 37.3556 -80.5406 163° South 251 289 5,400 -950 Descending Washington Center
Wed 09:43:50 PM 37.2942 -80.5131 160° South 231 266 5,000 -700 Descending Washington Center
Wed 09:44:50 PM 37.2492 -80.4894 157° South 200 230 4,000 -1,150 Descending Washington Center
Wed 09:45:50 PM 37.2236 -80.4539 132° Southeast 165 190 2,700 -1,300 Descending Washington Center

Login

Don't have an account? Register now (free) for customized features, flight alerts, and more!